Time;durP1;ratioP1;P1;durP2;ratioP2;P2;SDS_P1;SDS_P2;PMS_P1;PMS_P2;Temp;Humidity;BMP_temperature;BMP_pressure;BME280_temperature;BME280_humidity;BME280_pressure;Samples;Min_cycle;Max_cycle;Signal;HPM_P1;HPM_P2
2021/07/13 00:00:27;;;;;;;12.93;10.07;;;;;;;20.64;74.65;100581.31;5093995;28;20048;-68
2021/07/13 00:02:53;;;;;;;16.50;10.68;;;;;;;20.58;74.92;100587.00;5082504;28;20044;-67
2021/07/13 00:05:21;;;;;;;13.38;10.13;;;;;;;20.54;75.24;100577.56;5085630;28;20040;-66
2021/07/13 00:07:49;;;;;;;15.20;11.20;;;;;;;20.57;75.01;100583.50;5087507;28;20044;-67
2021/07/13 00:10:19;;;;;;;13.30;10.32;;;;;;;20.56;74.90;100584.47;5091531;28;20160;-67
2021/07/13 00:12:46;;;;;;;14.40;11.00;;;;;;;20.56;75.05;100579.19;5082583;28;20044;-66
2021/07/13 00:15:18;;;;;;;13.43;11.07;;;;;;;20.54;75.21;100581.06;5078997;28;20559;-67
2021/07/13 00:17:45;;;;;;;15.85;10.77;;;;;;;20.55;75.10;100581.91;5079834;28;20048;-66
2021/07/13 00:20:13;;;;;;;14.80;10.65;;;;;;;20.56;75.37;100583.59;5085603;28;20044;-66
2021/07/13 00:22:41;;;;;;;16.73;12.23;;;;;;;20.55;75.22;100581.91;5079798;28;20048;-67
2021/07/13 00:25:09;;;;;;;15.65;11.02;;;;;;;20.56;75.14;100578.31;5083224;28;20054;-67
2021/07/13 00:27:35;;;;;;;13.90;10.82;;;;;;;20.57;75.24;100580.00;5087261;28;20047;-67
2021/07/13 00:30:02;;;;;;;14.98;10.63;;;;;;;20.58;75.10;100581.72;5086654;28;20052;-67
2021/07/13 00:32:28;;;;;;;16.70;11.80;;;;;;;20.51;75.33;100594.47;5084470;28;20052;-66
2021/07/13 00:34:55;;;;;;;18.35;10.50;;;;;;;20.46;75.60;100578.91;5083034;28;20554;-67
2021/07/13 00:37:21;;;;;;;19.23;11.00;;;;;;;20.36;76.00;100588.34;5076668;28;20432;-66
2021/07/13 00:39:49;;;;;;;14.00;10.82;;;;;;;20.32;76.41;100586.84;5084668;28;20047;-66
2021/07/13 00:42:17;;;;;;;16.13;11.57;;;;;;;20.35;76.43;100591.94;5085903;28;20135;-67
2021/07/13 00:44:45;;;;;;;14.50;11.63;;;;;;;20.34;76.32;100596.38;5087085;28;20055;-68
2021/07/13 00:47:13;;;;;;;14.88;10.95;;;;;;;20.35;76.50;100607.78;5079327;28;20105;-67
2021/07/13 00:49:44;;;;;;;15.98;11.30;;;;;;;20.32;76.45;100600.03;5081861;28;20048;-66
2021/07/13 00:52:11;;;;;;;17.80;11.52;;;;;;;20.31;76.49;100604.50;5082398;28;20055;-66
2021/07/13 00:54:39;;;;;;;15.13;12.48;;;;;;;20.26;76.94;100601.31;5083101;28;20055;-65
2021/07/13 00:57:09;;;;;;;16.10;12.38;;;;;;;20.29;76.82;100613.47;5087453;28;20497;-65
2021/07/13 00:59:37;;;;;;;20.90;12.63;;;;;;;20.30;76.73;100604.59;5084850;28;20141;-65
2021/07/13 01:02:04;;;;;;;17.88;12.60;;;;;;;20.27;76.81;100600.34;5084621;28;20039;-65
2021/07/13 01:04:31;;;;;;;16.20;12.77;;;;;;;20.28;76.95;100596.75;5081409;28;20049;-66
2021/07/13 01:07:01;;;;;;;14.05;11.93;;;;;;;20.30;76.86;100601.97;5077600;28;20044;-66
2021/07/13 01:09:40;;;;;;;17.48;12.90;;;;;;;20.30;76.90;100605.44;5089034;28;20051;-66
2021/07/13 01:12:15;;;;;;;18.77;13.43;;;;;;;20.31;76.95;100604.50;5081468;28;20497;-66
2021/07/13 01:14:51;;;;;;;15.73;12.95;;;;;;;20.35;76.90;100605.16;5082621;28;20044;-66
2021/07/13 01:17:23;;;;;;;19.52;13.02;;;;;;;20.34;76.88;100600.81;5085392;28;20741;-65
2021/07/13 01:20:31;;;;;;;19.50;13.77;;;;;;;20.31;77.10;100606.31;5076540;28;20101;-66
2021/07/13 01:23:08;;;;;;;21.20;13.02;;;;;;;20.33;77.05;100599.97;5083613;28;20474;-66
2021/07/13 01:25:42;;;;;;;18.83;14.40;;;;;;;20.30;77.16;100599.31;5077617;28;20423;-66
2021/07/13 01:28:13;;;;;;;18.50;13.43;;;;;;;20.24;77.26;100600.53;5083695;28;20052;-64
2021/07/13 01:30:44;;;;;;;21.00;14.38;;;;;;;20.26;77.54;100601.31;5079776;28;20391;-66
2021/07/13 01:33:13;;;;;;;17.45;13.73;;;;;;;20.21;78.16;100595.44;5076561;28;20048;-67
2021/07/13 01:35:46;;;;;;;16.85;13.70;;;;;;;20.15;78.60;100588.75;5083824;28;20047;-66
2021/07/13 01:38:14;;;;;;;25.77;15.63;;;;;;;20.09;79.36;100591.78;5084747;28;20101;-66
2021/07/13 01:40:43;;;;;;;17.65;15.40;;;;;;;20.13;79.69;100588.00;5082228;28;20052;-67
2021/07/13 01:43:13;;;;;;;18.50;15.00;;;;;;;20.15;79.86;100588.75;5091744;28;20051;-67
2021/07/13 01:45:41;;;;;;;20.52;14.77;;;;;;;20.19;79.96;100586.75;5087870;28;20052;-66
2021/07/13 01:48:10;;;;;;;24.83;15.23;;;;;;;20.21;80.45;100589.31;5077966;28;20102;-67
2021/07/13 01:50:38;;;;;;;22.08;14.15;;;;;;;20.22;80.61;100586.59;5082703;28;20152;-67
2021/07/13 01:53:07;;;;;;;19.10;14.65;;;;;;;20.27;80.93;100583.66;5090286;28;20052;-67
2021/07/13 01:55:35;;;;;;;19.05;15.32;;;;;;;20.31;80.87;100574.59;5081613;28;20052;-67
2021/07/13 01:58:03;;;;;;;17.77;14.35;;;;;;;20.34;80.86;100577.03;5089160;28;20052;-65
2021/07/13 02:00:32;;;;;;;18.75;14.38;;;;;;;20.31;81.26;100579.88;5084226;28;20044;-66
2021/07/13 02:02:59;;;;;;;22.25;16.17;;;;;;;20.21;81.61;100584.03;5078666;28;20416;-67
2021/07/13 02:05:27;;;;;;;23.50;15.90;;;;;;;20.04;82.09;100583.28;5089679;28;20134;-67
2021/07/13 02:07:58;;;;;;;20.70;17.25;;;;;;;20.02;82.57;100569.31;5090505;28;20097;-66
2021/07/13 02:10:25;;;;;;;27.20;17.10;;;;;;;19.90;83.34;100578.00;5092989;28;20459;-66
2021/07/13 02:12:52;;;;;;;23.60;19.17;;;;;;;19.77;83.85;100570.81;5089079;28;20052;-66
2021/07/13 02:15:18;;;;;;;27.65;20.38;;;;;;;19.80;84.37;100565.34;5083414;28;20048;-64
2021/07/13 02:17:49;;;;;;;25.02;21.42;;;;;;;19.84;84.49;100574.75;5086958;28;20044;-66
2021/07/13 02:20:17;;;;;;;25.52;20.27;;;;;;;19.85;84.30;100579.13;5092104;28;20177;-66
2021/07/13 02:22:43;;;;;;;26.02;19.60;;;;;;;19.90;84.53;100585.94;5086657;28;20097;-66
2021/07/13 02:25:12;;;;;;;28.23;20.42;;;;;;;19.90;84.61;100583.28;5087620;28;20051;-66
2021/07/13 02:27:44;;;;;;;26.58;20.92;;;;;;;19.92;84.41;100589.31;5086398;28;20044;-66
2021/07/13 02:30:12;;;;;;;26.00;20.95;;;;;;;19.94;84.43;100590.06;5084620;28;20048;-65
2021/07/13 02:32:45;;;;;;;22.75;20.35;;;;;;;19.98;84.58;100581.88;5092692;28;20474;-66
2021/07/13 02:35:15;;;;;;;25.48;22.42;;;;;;;19.99;84.50;100591.47;5091835;28;20097;-65
2021/07/13 02:37:45;;;;;;;29.05;21.38;;;;;;;19.91;84.79;100592.91;5086186;28;20048;-66
2021/07/13 02:40:14;;;;;;;24.60;20.48;;;;;;;19.86;85.24;100585.28;5084332;28;20048;-66
2021/07/13 02:42:44;;;;;;;26.13;23.02;;;;;;;19.83;85.30;100585.41;5082695;28;20056;-66
2021/07/13 02:45:11;;;;;;;27.83;22.17;;;;;;;19.85;85.60;100586.19;5084031;28;20441;-66
2021/07/13 02:47:42;;;;;;;27.48;22.75;;;;;;;19.85;85.64;100594.97;5084846;28;20051;-66
2021/07/13 02:50:09;;;;;;;29.05;23.40;;;;;;;19.79;85.82;100590.03;5090090;28;20130;-66
2021/07/13 02:52:38;;;;;;;26.38;21.88;;;;;;;19.79;86.52;100602.38;5089389;28;20048;-65
2021/07/13 02:55:09;;;;;;;26.98;20.88;;;;;;;19.81;86.50;100592.56;5085222;28;20044;-64
2021/07/13 02:57:37;;;;;;;27.95;21.75;;;;;;;19.79;86.53;100589.16;5087808;28;20493;-64
2021/07/13 03:00:07;;;;;;;24.52;20.85;;;;;;;19.79;86.55;100589.16;5082660;28;20052;-65
2021/07/13 03:02:35;;;;;;;26.88;20.17;;;;;;;19.82;86.76;100589.84;5090748;28;20531;-65
2021/07/13 03:05:04;;;;;;;27.85;20.40;;;;;;;19.82;86.34;100589.00;5086017;28;20063;-65
2021/07/13 03:07:30;;;;;;;27.33;21.48;;;;;;;19.78;86.56;100584.84;5087530;28;20044;-66
2021/07/13 03:09:59;;;;;;;25.55;19.42;;;;;;;19.82;86.72;100579.28;5084751;28;20044;-65
2021/07/13 03:12:26;;;;;;;25.17;20.80;;;;;;;19.80;86.77;100581.19;5086289;28;20459;-65
2021/07/13 03:14:53;;;;;;;26.55;19.40;;;;;;;19.79;86.78;100575.97;5081925;28;20109;-66
2021/07/13 03:17:21;;;;;;;24.27;20.80;;;;;;;19.75;87.15;100577.13;5080451;28;20135;-64
2021/07/13 03:19:48;;;;;;;25.67;19.75;;;;;;;19.72;87.16;100573.72;5087694;28;20044;-65
2021/07/13 03:22:18;;;;;;;27.13;20.85;;;;;;;19.73;86.92;100574.56;5083224;28;20055;-65
2021/07/13 03:24:46;;;;;;;31.50;22.80;;;;;;;19.64;87.21;100570.69;5086946;28;20048;-65
2021/07/13 03:27:16;;;;;;;30.63;22.80;;;;;;;19.58;87.42;100573.69;5076671;22;20053;-70
2021/07/13 03:29:44;;;;;;;27.00;22.17;;;;;;;19.58;87.49;100577.19;5043062;28;20048;-70
2021/07/13 03:32:13;;;;;;;32.15;22.60;;;;;;;19.58;87.95;100577.19;5046215;28;20045;-69
2021/07/13 03:34:39;;;;;;;27.10;21.35;;;;;;;19.63;87.77;100566.38;5050611;28;20052;-70
2021/07/13 03:37:06;;;;;;;27.08;21.33;;;;;;;19.66;87.88;100562.69;5050554;28;20048;-70
2021/07/13 03:39:33;;;;;;;28.48;21.88;;;;;;;19.63;87.96;100562.84;5050894;28;20501;-69
2021/07/13 03:42:02;;;;;;;28.48;22.33;;;;;;;19.65;87.76;100560.97;5045352;28;20568;-69
2021/07/13 03:44:30;;;;;;;30.20;22.90;;;;;;;19.62;88.02;100547.97;5055913;28;20059;-69
2021/07/13 03:46:57;;;;;;;26.60;21.92;;;;;;;19.61;88.33;100554.22;5048616;28;20048;-69
2021/07/13 03:49:25;;;;;;;26.55;21.88;;;;;;;19.63;88.06;100542.63;5050044;28;20510;-70
2021/07/13 03:51:52;;;;;;;29.88;23.35;;;;;;;19.63;87.93;100549.66;5045761;28;20057;-69
2021/07/13 03:54:20;;;;;;;28.30;22.15;;;;;;;19.61;88.02;100551.56;5051410;28;20056;-69
2021/07/13 03:56:47;;;;;;;32.70;24.27;;;;;;;19.55;87.61;100545.72;5042648;28;20045;-70
2021/07/13 03:59:14;;;;;;;34.05;24.65;;;;;;;19.56;88.03;100550.03;5048322;28;20041;-69
2021/07/13 04:01:42;;;;;;;29.90;23.38;;;;;;;19.56;87.75;100544.78;5045729;28;20395;-69
2021/07/13 04:04:09;;;;;;;32.95;24.30;;;;;;;19.54;88.06;100553.72;5042003;28;20070;-69
2021/07/13 04:06:36;;;;;;;34.03;23.88;;;;;;;19.50;88.10;100552.19;5045917;28;20056;-69
2021/07/13 04:09:05;;;;;;;32.63;23.23;;;;;;;19.48;88.29;100547.03;5049808;28;20049;-70
2021/07/13 04:11:31;;;;;;;30.45;25.50;;;;;;;19.39;88.32;100547.56;5046856;28;20128;-70
2021/07/13 04:13:57;;;;;;;34.03;26.30;;;;;;;19.40;88.04;100547.47;5045278;28;20060;-69
2021/07/13 04:16:24;;;;;;;33.15;25.15;;;;;;;19.26;88.92;100550.09;5048597;28;20103;-69
2021/07/13 04:18:52;;;;;;;36.55;27.13;;;;;;;19.21;89.45;100553.00;5048709;28;20499;-70
2021/07/13 04:21:18;;;;;;;38.72;26.52;;;;;;;19.14;89.65;100549.00;5048940;28;20041;-69
2021/07/13 04:23:44;;;;;;;36.15;26.80;;;;;;;19.14;89.65;100553.44;5047006;28;20056;-69
2021/07/13 04:26:11;;;;;;;36.45;22.63;;;;;;;19.10;88.94;100553.59;5046546;28;20143;-69
2021/07/13 04:28:38;;;;;;;29.42;20.77;;;;;;;19.03;88.85;100552.28;5045257;28;20045;-70
2021/07/13 04:31:04;;;;;;;28.90;21.38;;;;;;;18.99;89.64;100550.75;5046600;28;20060;-69
2021/07/13 04:33:31;;;;;;;31.08;21.80;;;;;;;18.99;89.35;100552.53;5048229;28;20110;-69
2021/07/13 04:35:59;;;;;;;26.08;20.10;;;;;;;18.99;89.75;100550.75;5047817;28;20056;-69
2021/07/13 04:38:26;;;;;;;29.30;21.88;;;;;;;19.04;89.37;100550.47;5049576;28;20057;-70
2021/07/13 04:40:53;;;;;;;33.38;24.30;;;;;;;19.01;89.31;100545.41;5046005;28;20065;-69
2021/07/13 04:43:19;;;;;;;35.40;25.45;;;;;;;18.93;89.78;100544.03;5044660;28;20060;-70
2021/07/13 04:45:46;;;;;;;40.80;26.45;;;;;;;18.87;90.46;100554.03;5047323;28;20527;-69
2021/07/13 04:48:12;;;;;;;32.45;25.35;;;;;;;18.80;90.88;100556.22;5047110;28;20045;-68
2021/07/13 04:50:39;;;;;;;32.33;24.80;;;;;;;18.82;91.10;100553.47;5043362;28;20081;-70
2021/07/13 04:53:06;;;;;;;31.42;25.83;;;;;;;18.82;91.02;100564.00;5048654;28;20053;-69
2021/07/13 04:55:33;;;;;;;30.10;24.00;;;;;;;18.85;90.89;100567.31;5046076;28;20056;-69
2021/07/13 04:58:00;;;;;;;30.80;25.38;;;;;;;18.86;90.59;100563.75;5045134;28;20880;-71
2021/07/13 05:00:27;;;;;;;31.88;25.75;;;;;;;18.88;90.65;100567.16;5049082;28;20049;-69
2021/07/13 05:02:53;;;;;;;32.63;25.85;;;;;;;18.91;90.41;100567.00;5048499;28;20098;-70
2021/07/13 05:05:19;;;;;;;34.72;25.05;;;;;;;18.92;89.77;100567.81;5047009;28;20053;-69
2021/07/13 05:07:47;;;;;;;35.05;26.05;;;;;;;18.87;90.27;100560.19;5048375;28;20128;-69
2021/07/13 05:10:16;;;;;;;36.58;26.52;;;;;;;18.82;90.31;100566.66;5048807;28;20045;-69
2021/07/13 05:12:43;;;;;;;34.95;24.75;;;;;;;18.83;90.12;100568.34;5044589;28;20154;-69
2021/07/13 05:15:13;;;;;;;33.28;24.98;;;;;;;18.81;90.24;100568.44;5048663;28;20060;-69
2021/07/13 05:17:40;;;;;;;32.85;25.60;;;;;;;18.79;90.45;100576.41;5047020;28;20060;-69
2021/07/13 05:20:08;;;;;;;32.78;24.58;;;;;;;18.79;90.55;100583.50;5046127;28;20044;-70
2021/07/13 05:22:35;;;;;;;31.85;23.70;;;;;;;18.75;91.06;100574.91;5047601;28;20061;-69
2021/07/13 05:25:01;;;;;;;30.58;24.00;;;;;;;18.76;90.82;100566.06;5049697;28;20509;-69
2021/07/13 05:27:32;;;;;;;33.30;22.67;;;;;;;18.72;90.95;100577.72;5043169;28;20056;-70
2021/07/13 05:29:59;;;;;;;28.90;22.88;;;;;;;18.73;91.14;100578.53;5044389;28;20049;-69
2021/07/13 05:32:25;;;;;;;29.60;23.20;;;;;;;18.72;91.24;100569.81;5046123;28;20122;-70
2021/07/13 05:34:51;;;;;;;27.77;23.10;;;;;;;18.72;91.31;100577.72;5049060;28;20048;-69
2021/07/13 05:37:18;;;;;;;31.50;24.27;;;;;;;18.74;91.15;100567.06;5049477;28;20049;-69
2021/07/13 05:39:44;;;;;;;25.92;20.95;;;;;;;18.69;91.22;100564.69;5043275;28;20499;-69
2021/07/13 05:42:11;;;;;;;33.88;24.20;;;;;;;18.73;91.05;100570.63;5048041;28;20127;-68
2021/07/13 05:44:39;;;;;;;31.60;23.25;;;;;;;18.65;90.97;100566.66;5045003;28;20079;-69
2021/07/13 05:47:06;;;;;;;31.10;23.40;;;;;;;18.63;91.01;100565.88;5045964;28;20390;-69
2021/07/13 05:49:32;;;;;;;26.80;21.60;;;;;;;18.62;91.13;100576.53;5043385;28;20057;-70
2021/07/13 05:51:59;;;;;;;28.35;21.75;;;;;;;18.62;90.89;100571.25;5046531;28;20103;-67
2021/07/13 05:54:25;;;;;;;29.90;21.65;;;;;;;18.60;90.76;100575.75;5048721;28;20458;-69
2021/07/13 05:56:52;;;;;;;31.55;21.88;;;;;;;18.60;90.95;100575.75;5039158;28;20049;-69
2021/07/13 05:59:19;;;;;;;29.95;21.27;;;;;;;18.57;91.35;100570.66;5047763;28;20049;-70
2021/07/13 06:01:47;;;;;;;26.10;20.88;;;;;;;18.53;90.95;100572.59;5042768;28;20049;-69
2021/07/13 06:04:13;;;;;;;28.40;21.48;;;;;;;18.52;91.25;100578.81;5039373;28;20053;-70
2021/07/13 06:06:40;;;;;;;24.00;19.33;;;;;;;18.64;90.88;100577.28;5040117;28;20052;-69
2021/07/13 06:09:06;;;;;;;21.05;17.00;;;;;;;18.64;90.30;100574.66;5045493;28;20106;-69
2021/07/13 06:11:33;;;;;;;21.23;14.95;;;;;;;18.62;89.88;100572.09;5045532;28;20044;-69
2021/07/13 06:13:59;;;;;;;16.52;13.20;;;;;;;18.56;89.36;100569.81;5045972;28;20415;-67
2021/07/13 06:16:25;;;;;;;17.58;13.02;;;;;;;18.56;89.40;100571.59;5043012;28;20056;-70
2021/07/13 06:18:53;;;;;;;17.45;11.77;;;;;;;18.65;89.36;100576.34;5043628;28;20114;-68
2021/07/13 06:21:20;;;;;;;15.82;11.57;;;;;;;18.61;88.96;100569.56;5043079;28;20037;-69
2021/07/13 06:23:46;;;;;;;14.90;10.98;;;;;;;18.69;88.86;100569.13;5049329;28;20060;-70
2021/07/13 06:26:12;;;;;;;14.93;10.07;;;;;;;18.71;88.27;100572.53;5048248;28;20041;-69
2021/07/13 06:28:39;;;;;;;11.57;8.48;;;;;;;18.71;87.41;100569.91;5047129;28;20061;-69
2021/07/13 06:31:05;;;;;;;13.48;8.95;;;;;;;18.76;88.05;100567.84;5048632;28;20040;-69
2021/07/13 06:33:32;;;;;;;11.70;8.27;;;;;;;18.76;88.02;100573.13;5042942;28;20076;-69
2021/07/13 06:35:59;;;;;;;12.98;8.18;;;;;;;18.75;87.91;100568.78;5045388;28;20067;-68
2021/07/13 06:38:26;;;;;;;11.55;7.82;;;;;;;18.84;88.06;100570.88;5046497;28;20396;-69
2021/07/13 06:40:52;;;;;;;10.20;7.68;;;;;;;18.94;87.91;100566.81;5047557;28;20049;-67
2021/07/13 06:43:19;;;;;;;10.80;8.27;;;;;;;19.06;86.48;100569.69;5045599;28;20049;-69
2021/07/13 06:45:45;;;;;;;10.77;8.55;;;;;;;19.03;86.44;100568.09;5047499;28;20130;-69
2021/07/13 06:48:11;;;;;;;13.15;8.82;;;;;;;19.04;86.61;100566.28;5044123;28;20122;-68
2021/07/13 06:50:38;;;;;;;12.98;8.52;;;;;;;19.02;86.78;100563.75;5040193;28;20041;-67
2021/07/13 06:53:06;;;;;;;10.15;8.65;;;;;;;19.02;87.00;100563.75;5045820;28;20056;-69
2021/07/13 06:55:32;;;;;;;10.75;8.02;;;;;;;19.10;86.76;100560.69;5048827;28;20064;-69
2021/07/13 06:57:59;;;;;;;12.30;7.47;;;;;;;19.12;86.23;100558.78;5050987;28;20048;-68
2021/07/13 07:00:25;;;;;;;12.05;8.10;;;;;;;19.17;86.31;100567.28;5045169;28;20102;-69
2021/07/13 07:02:51;;;;;;;8.45;6.72;;;;;;;19.22;86.36;100565.22;5046705;28;20080;-68
2021/07/13 07:05:18;;;;;;;9.65;7.20;;;;;;;19.29;85.93;100575.44;5044074;28;20049;-69
2021/07/13 07:07:46;;;;;;;12.35;7.80;;;;;;;19.20;85.32;100576.81;5043677;28;20201;-69
2021/07/13 07:10:17;;;;;;;9.43;7.35;;;;;;;19.24;85.78;100579.16;5047448;28;20414;-68
2021/07/13 07:12:44;;;;;;;13.02;7.97;;;;;;;19.27;85.72;100578.13;5043212;28;20057;-66
2021/07/13 07:15:11;;;;;;;11.65;7.57;;;;;;;19.27;85.85;100573.72;5045049;28;20091;-68
2021/07/13 07:17:48;;;;;;;10.00;8.05;;;;;;;19.27;85.42;100583.41;5042251;28;20053;-68
2021/07/13 07:20:16;;;;;;;9.82;7.95;;;;;;;19.29;86.04;100585.97;5040861;28;20367;-69
2021/07/13 07:22:43;;;;;;;13.07;8.80;;;;;;;19.25;86.03;100587.94;5044508;28;20041;-69
2021/07/13 07:25:10;;;;;;;11.48;8.80;;;;;;;19.25;85.96;100586.16;5048872;28;20060;-69
2021/07/13 07:27:39;;;;;;;13.40;8.57;;;;;;;19.29;86.24;100585.97;5048830;28;20090;-69
2021/07/13 07:30:07;;;;;;;14.38;9.18;;;;;;;19.21;86.38;100582.00;5048283;28;20045;-68
2021/07/13 07:32:34;;;;;;;14.40;9.40;;;;;;;19.30;86.14;100571.84;5049967;28;20049;-69
2021/07/13 07:35:00;;;;;;;13.45;10.45;;;;;;;19.29;86.01;100576.25;5047620;28;20136;-70
2021/07/13 07:37:27;;;;;;;14.98;11.07;;;;;;;19.22;86.08;100569.66;5050542;28;20044;-67
2021/07/13 07:39:54;;;;;;;14.90;11.00;;;;;;;19.21;86.71;100574.09;5052970;28;20049;-66
2021/07/13 07:42:20;;;;;;;16.02;11.30;;;;;;;19.16;86.26;100578.78;5046584;28;20041;-69
2021/07/13 07:44:48;;;;;;;15.18;11.55;;;;;;;19.18;87.24;100578.69;5045930;28;20052;-69
2021/07/13 07:47:14;;;;;;;16.40;12.00;;;;;;;19.19;86.70;100585.66;5043564;28;20049;-69
2021/07/13 07:49:41;;;;;;;17.75;12.30;;;;;;;19.22;86.92;100586.31;5044331;28;20053;-70
2021/07/13 07:52:07;;;;;;;16.60;13.20;;;;;;;19.23;86.75;100588.03;5042052;28;20049;-70
2021/07/13 07:54:34;;;;;;;20.40;13.60;;;;;;;19.21;87.04;100589.06;5041603;28;20053;-69
2021/07/13 07:57:00;;;;;;;21.45;14.95;;;;;;;19.10;87.81;100584.41;5048405;28;20045;-69
2021/07/13 07:59:27;;;;;;;21.27;15.43;;;;;;;19.11;88.57;100592.22;5047309;28;20583;-69
2021/07/13 08:01:55;;;;;;;23.30;16.85;;;;;;;19.04;89.17;100593.53;5047925;28;20438;-70
2021/07/13 08:04:21;;;;;;;23.80;16.55;;;;;;;19.06;88.88;100594.28;5045588;28;20053;-70
2021/07/13 08:06:47;;;;;;;25.60;18.30;;;;;;;18.98;89.68;100612.31;5049232;28;20083;-68
2021/07/13 08:09:14;;;;;;;22.92;17.90;;;;;;;18.97;90.18;100618.50;5041649;28;20099;-71
2021/07/13 08:11:40;;;;;;;24.67;18.80;;;;;;;18.92;90.21;100616.09;5048343;28;20057;-69
2021/07/13 08:14:07;;;;;;;29.20;20.42;;;;;;;18.93;90.55;100617.00;5039023;28;20053;-70
2021/07/13 08:16:35;;;;;;;28.75;20.85;;;;;;;18.91;91.00;100614.44;5038545;28;20060;-71
2021/07/13 08:19:03;;;;;;;28.95;20.92;;;;;;;18.91;91.05;100608.28;5037276;28;20122;-73
2021/07/13 08:21:30;;;;;;;28.55;22.70;;;;;;;18.92;91.38;100610.00;5036308;28;20454;-69
2021/07/13 08:23:58;;;;;;;28.65;22.35;;;;;;;18.98;91.71;100609.66;5044023;28;20474;-69
2021/07/13 08:26:25;;;;;;;31.58;23.83;;;;;;;18.95;91.83;100600.16;5044857;28;20485;-68
2021/07/13 08:28:51;;;;;;;27.90;22.75;;;;;;;19.07;91.88;100613.59;5045841;28;20481;-69
2021/07/13 08:31:18;;;;;;;34.55;25.55;;;;;;;19.07;92.24;100601.22;5048156;28;20071;-69
2021/07/13 08:33:44;;;;;;;34.80;26.88;;;;;;;19.15;92.69;100605.25;5045826;28;20091;-69
2021/07/13 08:36:12;;;;;;;35.42;26.52;;;;;;;19.16;92.11;100599.03;5042711;28;20057;-70
2021/07/13 08:38:38;;;;;;;36.50;26.80;;;;;;;19.22;92.41;100596.88;5044162;28;20044;-70
2021/07/13 08:41:05;;;;;;;38.63;28.77;;;;;;;19.21;92.56;100596.97;5043129;28;20052;-70
2021/07/13 08:43:33;;;;;;;36.53;28.48;;;;;;;19.27;92.02;100592.19;5046388;28;20341;-70
2021/07/13 08:45:59;;;;;;;40.30;29.20;;;;;;;19.30;92.57;100590.31;5046528;28;20457;-71
2021/07/13 08:48:26;;;;;;;40.72;31.73;;;;;;;19.34;92.49;100589.19;5041685;28;20048;-68
2021/07/13 08:50:55;;;;;;;39.33;31.13;;;;;;;19.43;92.18;100578.09;5048249;28;20435;-69
2021/07/13 08:53:23;;;;;;;42.83;33.58;;;;;;;19.38;92.70;100583.63;5049937;28;20136;-70
2021/07/13 08:55:51;;;;;;;44.90;33.83;;;;;;;19.44;92.85;100590.34;5049143;28;20045;-69
2021/07/13 08:58:17;;;;;;;51.47;35.90;;;;;;;19.32;93.29;100586.66;5047686;28;20095;-71
2021/07/13 09:00:43;;;;;;;46.30;35.30;;;;;;;19.42;93.11;100573.75;5048642;28;20514;-71
2021/07/13 09:03:12;;;;;;;47.97;36.03;;;;;;;19.60;92.60;100560.44;5050090;28;20044;-69
2021/07/13 09:05:47;;;;;;;47.17;37.00;;;;;;;19.73;92.17;100569.28;5047409;28;20048;-70
2021/07/13 09:08:21;;;;;;;48.28;36.75;;;;;;;19.88;92.19;100562.25;5039180;28;20053;-70
2021/07/13 09:11:18;;;;;;;46.00;35.15;;;;;;;20.15;91.24;100559.69;5046236;28;20049;-70
2021/07/13 09:13:46;;;;;;;45.33;36.45;;;;;;;20.19;90.56;100561.22;5045226;28;20473;-70
2021/07/13 09:16:15;;;;;;;41.85;33.42;;;;;;;20.38;89.92;100567.97;5048738;28;20489;-70
2021/07/13 09:18:43;;;;;;;36.55;30.33;;;;;;;20.56;89.08;100565.09;5049678;28;20048;-70
2021/07/13 09:21:16;;;;;;;37.33;31.70;;;;;;;20.60;87.39;100574.53;5048365;28;20048;-70
2021/07/13 09:24:02;;;;;;;38.78;31.98;;;;;;;20.56;88.56;100576.53;5045643;28;20063;-70
2021/07/13 09:26:41;;;;;;;41.17;32.65;;;;;;;20.65;88.89;100577.72;5049611;28;20045;-69
2021/07/13 09:29:08;;;;;;;40.28;31.75;;;;;;;20.69;88.28;100584.53;5045980;28;20167;-70
2021/07/13 09:31:35;;;;;;;36.55;30.42;;;;;;;20.78;87.78;100589.25;5048503;28;20052;-71
2021/07/13 09:34:02;;;;;;;38.03;31.33;;;;;;;20.69;87.84;100589.81;5049112;28;20502;-70
2021/07/13 09:36:28;;;;;;;37.58;30.63;;;;;;;20.57;88.03;100586.13;5046086;28;20077;-69
2021/07/13 09:38:55;;;;;;;35.17;29.90;;;;;;;20.55;87.61;100587.19;5048835;28;20060;-68
2021/07/13 09:41:26;;;;;;;35.53;30.05;;;;;;;20.59;88.04;100583.41;5048958;28;20124;-67
2021/07/13 09:44:00;;;;;;;40.25;31.25;;;;;;;20.53;88.01;100583.78;5055930;28;20049;-68
2021/07/13 09:46:32;;;;;;;37.10;31.88;;;;;;;20.48;88.66;100586.72;5049060;28;20041;-69
2021/07/13 09:49:13;;;;;;;35.83;29.65;;;;;;;20.45;88.80;100582.50;5046885;28;20106;-67
2021/07/13 09:51:40;;;;;;;34.90;29.23;;;;;;;20.58;89.09;100584.34;5046296;28;20048;-69
2021/07/13 09:54:30;;;;;;;38.63;31.63;;;;;;;20.59;88.73;100580.78;5049025;28;20056;-67
2021/07/13 09:56:57;;;;;;;34.17;30.45;;;;;;;20.72;88.09;100579.00;5049261;28;20052;-67
2021/07/13 09:59:25;;;;;;;37.67;29.67;;;;;;;20.61;87.48;100584.16;5050892;28;20061;-70
2021/07/13 10:01:52;;;;;;;34.53;29.75;;;;;;;20.56;87.59;100584.47;5053566;28;20131;-69
2021/07/13 10:04:18;;;;;;;34.90;30.02;;;;;;;20.41;87.97;100586.28;5051151;28;20053;-70
2021/07/13 10:06:46;;;;;;;34.38;29.63;;;;;;;20.31;88.90;100585.16;5046147;28;20048;-69
2021/07/13 10:09:13;;;;;;;36.20;30.25;;;;;;;20.27;89.65;100589.75;5045591;28;20055;-66
2021/07/13 10:11:41;;;;;;;35.15;28.92;;;;;;;20.25;89.31;100582.88;5050280;28;20045;-69
2021/07/13 10:14:08;;;;;;;36.65;30.05;;;;;;;20.20;90.26;100588.47;5076840;22;20149;-67
2021/07/13 10:16:37;;;;;;;35.50;28.67;;;;;;;20.25;90.23;100581.13;5059949;28;20059;-66
2021/07/13 10:19:06;;;;;;;32.67;28.17;;;;;;;20.24;89.01;100589.13;5066580;28;20048;-64
2021/07/13 10:21:34;;;;;;;33.67;27.95;;;;;;;20.31;89.34;100585.16;5066541;28;20048;-65
2021/07/13 10:24:01;;;;;;;30.05;26.58;;;;;;;20.39;89.08;100582.88;5072644;28;20131;-68
2021/07/13 10:26:43;;;;;;;32.58;26.30;;;;;;;20.50;88.37;100584.84;5072808;28;20041;-64
2021/07/13 10:29:40;;;;;;;30.50;25.17;;;;;;;20.45;88.44;100585.13;5066223;28;20052;-67
2021/07/13 10:32:31;;;;;;;30.25;24.42;;;;;;;20.52;88.44;100585.59;5069331;28;20140;-66
2021/07/13 10:34:59;;;;;;;29.00;23.65;;;;;;;20.51;88.69;100589.19;5068842;28;20045;-66
2021/07/13 10:37:31;;;;;;;29.60;23.08;;;;;;;20.55;87.97;100587.19;5068168;28;20470;-66
2021/07/13 10:39:59;;;;;;;26.90;20.90;;;;;;;20.49;87.56;100593.69;5070192;28;20041;-67
2021/07/13 10:42:50;;;;;;;26.58;21.58;;;;;;;20.36;88.42;100588.34;5071477;28;20401;-66
2021/07/13 10:45:19;;;;;;;25.65;21.08;;;;;;;20.39;87.84;100587.31;5071748;28;20090;-66
2021/07/13 10:48:12;;;;;;;27.20;22.02;;;;;;;20.44;87.95;100590.53;5072347;28;20075;-66
2021/07/13 10:50:53;;;;;;;24.92;19.90;;;;;;;20.61;88.02;100586.81;5063464;28;20128;-67
2021/07/13 10:53:31;;;;;;;23.10;19.75;;;;;;;20.67;86.53;100583.75;5070603;28;20119;-66
2021/07/13 10:56:14;;;;;;;23.52;19.60;;;;;;;20.69;86.33;100587.16;5072294;28;20051;-67
2021/07/13 10:58:49;;;;;;;23.42;18.63;;;;;;;20.83;85.62;100588.06;5063691;28;20144;-68
2021/07/13 11:01:26;;;;;;;22.38;19.27;;;;;;;20.74;84.95;100589.53;5068626;28;20136;-67
2021/07/13 11:04:04;;;;;;;25.20;20.13;;;;;;;20.77;84.94;100598.13;5071770;28;21598;-67
2021/07/13 11:06:57;;;;;;;24.27;19.35;;;;;;;20.69;84.56;100589.81;5067789;28;20060;-67
2021/07/13 11:09:35;;;;;;;23.17;18.98;;;;;;;20.63;85.01;100595.47;5069916;28;20052;-67
2021/07/13 11:12:08;;;;;;;23.60;18.92;;;;;;;20.74;85.22;100594.81;5069974;28;20076;-67
2021/07/13 11:14:35;;;;;;;24.70;20.33;;;;;;;20.75;85.21;100588.59;5068476;28;20480;-67
2021/07/13 11:17:01;;;;;;;27.60;20.60;;;;;;;20.73;85.34;100590.44;5071976;28;20048;-67